sensor_id;sensor_type;location;lat;lon;timestamp;pressure;altitude;pressure_sealevel;temperature;humidity
30302;BME280;17111;52.130;5.028;2024-03-23T00:55:50;101180.13;;;18.62;54.95
30302;BME280;17111;52.130;5.028;2024-03-23T00:58:16;101178.41;;;18.61;55.15
30302;BME280;17111;52.130;5.028;2024-03-23T01:00:41;101169.53;;;18.61;55.09
30302;BME280;17111;52.130;5.028;2024-03-23T01:03:07;101167.84;;;18.60;55.11
30302;BME280;17111;52.130;5.028;2024-03-23T01:05:33;101166.16;;;18.59;55.09
30302;BME280;17111;52.130;5.028;2024-03-23T01:07:58;101169.84;;;18.58;55.34
30302;BME280;17111;52.130;5.028;2024-03-23T01:10:24;101165.44;;;18.57;55.31
30302;BME280;17111;52.130;5.028;2024-03-23T01:12:49;101156.56;;;18.56;55.19
30302;BME280;17111;52.130;5.028;2024-03-23T01:15:15;101144.13;;;18.55;55.24
30302;BME280;17111;52.130;5.028;2024-03-23T01:17:41;101142.44;;;18.54;55.06
30302;BME280;17111;52.130;5.028;2024-03-23T01:20:06;101140.75;;;18.53;55.10
30302;BME280;17111;52.130;5.028;2024-03-23T01:22:32;101138.22;;;18.52;55.34
30302;BME280;17111;52.130;5.028;2024-03-23T01:24:58;101135.69;;;18.50;55.65
30302;BME280;17111;52.130;5.028;2024-03-23T01:27:24;101136.66;;;18.49;55.67
30302;BME280;17111;52.130;5.028;2024-03-23T01:29:50;101141.19;;;18.48;55.21
30302;BME280;17111;52.130;5.028;2024-03-23T01:32:18;101143.03;;;18.48;55.27
30302;BME280;17111;52.130;5.028;2024-03-23T01:34:44;101137.00;;;18.46;55.34
30302;BME280;17111;52.130;5.028;2024-03-23T01:37:10;101135.28;;;18.45;55.21
30302;BME280;17111;52.130;5.028;2024-03-23T01:39:36;101133.59;;;18.44;55.17
30302;BME280;17111;52.130;5.028;2024-03-23T01:42:01;101127.53;;;18.42;54.99
30302;BME280;17111;52.130;5.028;2024-03-23T01:44:27;101125.84;;;18.41;55.29
30302;BME280;17111;52.130;5.028;2024-03-23T01:46:53;101119.63;;;18.40;55.41
30302;BME280;17111;52.130;5.028;2024-03-23T01:49:18;101125.16;;;18.39;55.19
30302;BME280;17111;52.130;5.028;2024-03-23T01:51:44;101125.16;;;18.39;55.41
30302;BME280;17111;52.130;5.028;2024-03-23T01:54:10;101125.31;;;18.37;55.05
30302;BME280;17111;52.130;5.028;2024-03-23T01:56:36;101122.75;;;18.36;55.37
30302;BME280;17111;52.130;5.028;2024-03-23T01:59:02;101121.06;;;18.35;55.14
30302;BME280;17111;52.130;5.028;2024-03-23T02:01:28;101113.19;;;18.33;55.18
30302;BME280;17111;52.130;5.028;2024-03-23T02:03:54;101114.16;;;18.32;54.84
30302;BME280;17111;52.130;5.028;2024-03-23T02:06:19;101118.69;;;18.32;54.94
30302;BME280;17111;52.130;5.028;2024-03-23T02:08:45;101119.69;;;18.31;55.34
30302;BME280;17111;52.130;5.028;2024-03-23T02:11:11;101120.69;;;18.30;55.12
30302;BME280;17111;52.130;5.028;2024-03-23T02:13:36;101121.66;;;18.29;54.96
30302;BME280;17111;52.130;5.028;2024-03-23T02:16:02;101117.28;;;18.28;54.83
30302;BME280;17111;52.130;5.028;2024-03-23T02:18:28;101113.06;;;18.25;55.06
30302;BME280;17111;52.130;5.028;2024-03-23T02:20:53;101106.84;;;18.24;55.09
30302;BME280;17111;52.130;5.028;2024-03-23T02:23:19;101105.16;;;18.23;54.94
30302;BME280;17111;52.130;5.028;2024-03-23T02:25:45;101108.84;;;18.22;55.02
30302;BME280;17111;52.130;5.028;2024-03-23T02:28:11;101105.31;;;18.22;54.99
30302;BME280;17111;52.130;5.028;2024-03-23T02:30:37;101102.78;;;18.20;55.30
30302;BME280;17111;52.130;5.028;2024-03-23T02:33:03;101097.56;;;18.19;55.04
30302;BME280;17111;52.130;5.028;2024-03-23T02:35:29;101093.03;;;18.19;55.05
30302;BME280;17111;52.130;5.028;2024-03-23T02:37:55;101089.69;;;18.17;55.33
30302;BME280;17111;52.130;5.028;2024-03-23T02:40:25;101094.19;;;18.17;55.21
30302;BME280;17111;52.130;5.028;2024-03-23T02:42:51;101089.81;;;18.16;55.12
30302;BME280;17111;52.130;5.028;2024-03-23T02:45:18;101083.59;;;18.15;55.10
30302;BME280;17111;52.130;5.028;2024-03-23T02:47:43;101085.59;;;18.13;55.31
30302;BME280;17111;52.130;5.028;2024-03-23T02:50:09;101087.41;;;18.13;55.22
30302;BME280;17111;52.130;5.028;2024-03-23T02:52:35;101087.56;;;18.11;54.84
30302;BME280;17111;52.130;5.028;2024-03-23T02:55:02;101089.41;;;18.11;55.51
30302;BME280;17111;52.130;5.028;2024-03-23T02:57:28;101087.72;;;18.10;55.26
30302;BME280;17111;52.130;5.028;2024-03-23T02:59:54;101090.41;;;18.10;55.36
30302;BME280;17111;52.130;5.028;2024-03-23T03:02:20;101086.03;;;18.09;55.02
30302;BME280;17111;52.130;5.028;2024-03-23T03:04:46;101087.88;;;18.08;55.15
30302;BME280;17111;52.130;5.028;2024-03-23T03:07:12;101084.34;;;18.08;54.94
30302;BME280;17111;52.130;5.028;2024-03-23T03:09:37;101089.03;;;18.06;55.33
30302;BME280;17111;52.130;5.028;2024-03-23T03:12:05;101076.59;;;18.05;55.28
30302;BME280;17111;52.130;5.028;2024-03-23T03:14:31;101082.94;;;18.04;55.20
30302;BME280;17111;52.130;5.028;2024-03-23T03:16:56;101081.25;;;18.03;54.95
30302;BME280;17111;52.130;5.028;2024-03-23T03:19:22;101080.44;;;18.02;55.14
30302;BME280;17111;52.130;5.028;2024-03-23T03:21:48;101083.09;;;18.02;54.89
30302;BME280;17111;52.130;5.028;2024-03-23T03:24:13;101075.19;;;18.00;55.16
30302;BME280;17111;52.130;5.028;2024-03-23T03:26:39;101074.34;;;18.00;55.03
30302;BME280;17111;52.130;5.028;2024-03-23T03:29:05;101080.72;;;17.99;55.00
30302;BME280;17111;52.130;5.028;2024-03-23T03:31:30;101073.50;;;17.99;54.75
30302;BME280;17111;52.130;5.028;2024-03-23T03:33:56;101076.34;;;17.98;54.94
30302;BME280;17111;52.130;5.028;2024-03-23T03:36:22;101078.19;;;17.97;55.02
30302;BME280;17111;52.130;5.028;2024-03-23T03:38:47;101072.97;;;17.96;55.03
30302;BME280;17111;52.130;5.028;2024-03-23T03:41:13;101066.75;;;17.95;54.97
30302;BME280;17111;52.130;5.028;2024-03-23T03:43:38;101067.75;;;17.94;54.88
30302;BME280;17111;52.130;5.028;2024-03-23T03:46:04;101063.38;;;17.93;54.91
30302;BME280;17111;52.130;5.028;2024-03-23T03:48:30;101058.03;;;17.93;54.83
30302;BME280;17111;52.130;5.028;2024-03-23T03:50:55;101055.47;;;17.92;54.99
30302;BME280;17111;52.130;5.028;2024-03-23T03:53:21;101055.63;;;17.90;55.20
30302;BME280;17111;52.130;5.028;2024-03-23T03:55:47;101051.28;;;17.89;55.15
30302;BME280;17111;52.130;5.028;2024-03-23T03:58:12;101044.19;;;17.88;55.09
30302;BME280;17111;52.130;5.028;2024-03-23T04:00:38;101044.19;;;17.88;54.82
30302;BME280;17111;52.130;5.028;2024-03-23T04:03:04;101037.16;;;17.87;55.24
30302;BME280;17111;52.130;5.028;2024-03-23T04:05:30;101049.72;;;17.87;54.84
30302;BME280;17111;52.130;5.028;2024-03-23T04:07:55;101045.34;;;17.86;54.85
30302;BME280;17111;52.130;5.028;2024-03-23T04:10:21;101040.97;;;17.85;54.93
30302;BME280;17111;52.130;5.028;2024-03-23T04:12:47;101033.91;;;17.84;54.80
30302;BME280;17111;52.130;5.028;2024-03-23T04:15:13;101040.28;;;17.83;54.76
30302;BME280;17111;52.130;5.028;2024-03-23T04:17:39;101032.41;;;17.81;54.78
30302;BME280;17111;52.130;5.028;2024-03-23T04:20:05;101034.19;;;17.81;54.57
30302;BME280;17111;52.130;5.028;2024-03-23T04:22:40;101039.56;;;17.81;54.69
30302;BME280;17111;52.130;5.028;2024-03-23T04:25:06;101046.78;;;17.80;54.65
30302;BME280;17111;52.130;5.028;2024-03-23T04:27:33;101041.56;;;17.79;54.84
30302;BME280;17111;52.130;5.028;2024-03-23T04:29:58;101042.56;;;17.78;54.57
30302;BME280;17111;52.130;5.028;2024-03-23T04:32:26;101039.88;;;17.78;54.46
30302;BME280;17111;52.130;5.028;2024-03-23T04:34:52;101038.16;;;17.76;55.09
30302;BME280;17111;52.130;5.028;2024-03-23T04:37:18;101031.13;;;17.75;54.72
30302;BME280;17111;52.130;5.028;2024-03-23T04:39:43;101032.13;;;17.74;54.57
30302;BME280;17111;52.130;5.028;2024-03-23T04:42:09;101034.81;;;17.74;54.74
30302;BME280;17111;52.130;5.028;2024-03-23T04:44:34;101034.94;;;17.73;54.85
30302;BME280;17111;52.130;5.028;2024-03-23T04:47:00;101037.63;;;17.73;54.80
30302;BME280;17111;52.130;5.028;2024-03-23T04:49:27;101040.41;;;17.71;54.80
30302;BME280;17111;52.130;5.028;2024-03-23T04:51:53;101036.06;;;17.70;54.58
30302;BME280;17111;52.130;5.028;2024-03-23T04:54:19;101041.41;;;17.70;54.90
30302;BME280;17111;52.130;5.028;2024-03-23T04:56:45;101044.09;;;17.70;54.80
30302;BME280;17111;52.130;5.028;2024-03-23T04:59:11;101029.84;;;17.70;55.18
30302;BME280;17111;52.130;5.028;2024-03-23T05:01:36;101027.31;;;17.68;55.18
30302;BME280;17111;52.130;5.028;2024-03-23T05:04:04;101026.47;;;17.68;54.99
30302;BME280;17111;52.130;5.028;2024-03-23T05:06:30;101026.47;;;17.68;54.77
30302;BME280;17111;52.130;5.028;2024-03-23T05:08:56;101032.66;;;17.68;55.10
30302;BME280;17111;52.130;5.028;2024-03-23T05:11:22;101029.31;;;17.66;54.97
30302;BME280;17111;52.130;5.028;2024-03-23T05:13:47;101034.66;;;17.66;55.22
30302;BME280;17111;52.130;5.028;2024-03-23T05:16:13;101031.16;;;17.66;55.37
30302;BME280;17111;52.130;5.028;2024-03-23T05:18:39;101031.16;;;17.66;54.86
30302;BME280;17111;52.130;5.028;2024-03-23T05:21:05;101037.50;;;17.65;54.96
30302;BME280;17111;52.130;5.028;2024-03-23T05:23:30;101033.94;;;17.64;54.95
30302;BME280;17111;52.130;5.028;2024-03-23T05:25:56;101035.78;;;17.64;55.25
30302;BME280;17111;52.130;5.028;2024-03-23T05:28:22;101040.31;;;17.63;54.90
30302;BME280;17111;52.130;5.028;2024-03-23T05:30:53;101041.31;;;17.62;55.13
30302;BME280;17111;52.130;5.028;2024-03-23T05:33:20;101036.94;;;17.61;54.59
30302;BME280;17111;52.130;5.028;2024-03-23T05:35:46;101036.06;;;17.61;55.00
30302;BME280;17111;52.130;5.028;2024-03-23T05:38:13;101039.75;;;17.60;55.08
30302;BME280;17111;52.130;5.028;2024-03-23T05:40:39;101029.03;;;17.60;54.86
30302;BME280;17111;52.130;5.028;2024-03-23T05:43:08;101025.50;;;17.59;54.78
30302;BME280;17111;52.130;5.028;2024-03-23T05:45:34;101030.03;;;17.59;55.12
30302;BME280;17111;52.130;5.028;2024-03-23T05:48:00;101027.50;;;17.57;55.54
30302;BME280;17111;52.130;5.028;2024-03-23T05:50:26;101026.63;;;17.57;55.06
30302;BME280;17111;52.130;5.028;2024-03-23T05:52:52;101035.56;;;17.57;nan
30302;BME280;17111;52.130;5.028;2024-03-23T05:55:17;101028.47;;;17.56;54.99
30302;BME280;17111;52.130;5.028;2024-03-23T05:57:43;101036.69;;;17.55;54.98
30302;BME280;17111;52.130;5.028;2024-03-23T06:00:09;101029.63;;;17.54;55.00
30302;BME280;17111;52.130;5.028;2024-03-23T06:02:42;101023.44;;;17.53;55.13
30302;BME280;17111;52.130;5.028;2024-03-23T06:05:11;101032.31;;;17.54;55.15
30302;BME280;17111;52.130;5.028;2024-03-23T06:07:37;101031.47;;;17.53;54.94
30302;BME280;17111;52.130;5.028;2024-03-23T06:10:03;101032.44;;;17.52;55.00
30302;BME280;17111;52.130;5.028;2024-03-23T06:12:29;101030.75;;;17.51;54.89
30302;BME280;17111;52.130;5.028;2024-03-23T06:14:55;101030.75;;;17.51;55.07
30302;BME280;17111;52.130;5.028;2024-03-23T06:17:20;101035.28;;;17.50;55.22
30302;BME280;17111;52.130;5.028;2024-03-23T06:19:46;101035.28;;;17.50;54.93
30302;BME280;17111;52.130;5.028;2024-03-23T06:22:12;101036.13;;;17.51;55.18
30302;BME280;17111;52.130;5.028;2024-03-23T06:24:38;101032.44;;;17.52;55.63
30302;BME280;17111;52.130;5.028;2024-03-23T06:27:03;101027.91;;;17.52;55.71
30302;BME280;17111;52.130;5.028;2024-03-23T06:29:30;101026.13;;;17.53;55.47
30302;BME280;17111;52.130;5.028;2024-03-23T06:31:56;101028.78;;;17.53;55.43
30302;BME280;17111;52.130;5.028;2024-03-23T06:34:21;101026.97;;;17.54;55.33
30302;BME280;17111;52.130;5.028;2024-03-23T06:36:48;101025.13;;;17.54;55.57
30302;BME280;17111;52.130;5.028;2024-03-23T06:39:17;101024.13;;;17.55;55.62
30302;BME280;17111;52.130;5.028;2024-03-23T06:41:51;101021.44;;;17.55;55.74
30302;BME280;17111;52.130;5.028;2024-03-23T06:44:18;101023.97;;;17.57;55.75
30302;BME280;17111;52.130;5.028;2024-03-23T06:46:44;101035.56;;;17.57;55.65
30302;BME280;17111;52.130;5.028;2024-03-23T06:49:14;101029.03;;;17.60;56.11
30302;BME280;17111;52.130;5.028;2024-03-23T06:51:40;101031.28;;;17.64;56.21
30302;BME280;17111;52.130;5.028;2024-03-23T06:54:06;101025.78;;;17.66;57.13
30302;BME280;17111;52.130;5.028;2024-03-23T06:56:32;101025.63;;;17.67;56.61
30302;BME280;17111;52.130;5.028;2024-03-23T06:58:59;101024.63;;;17.68;56.03
30302;BME280;17111;52.130;5.028;2024-03-23T07:01:24;101021.94;;;17.68;55.84
30302;BME280;17111;52.130;5.028;2024-03-23T07:03:50;101019.25;;;17.68;55.96
30302;BME280;17111;52.130;5.028;2024-03-23T07:06:16;101022.81;;;17.69;55.69
30302;BME280;17111;52.130;5.028;2024-03-23T07:08:41;101025.50;;;17.69;55.93
30302;BME280;17111;52.130;5.028;2024-03-23T07:11:07;101026.34;;;17.69;56.23
30302;BME280;17111;52.130;5.028;2024-03-23T07:13:33;101033.38;;;17.70;55.89
30302;BME280;17111;52.130;5.028;2024-03-23T07:15:58;101024.34;;;17.71;56.47
30302;BME280;17111;52.130;5.028;2024-03-23T07:18:25;101032.38;;;17.71;56.38
30302;BME280;17111;52.130;5.028;2024-03-23T07:20:54;101038.59;;;17.72;56.33
30302;BME280;17111;52.130;5.028;2024-03-23T07:23:22;101033.81;;;17.75;55.78
30302;BME280;17111;52.130;5.028;2024-03-23T07:25:58;101033.81;;;17.75;56.28
30302;BME280;17111;52.130;5.028;2024-03-23T07:28:23;101048.75;;;17.78;55.89
30302;BME280;17111;52.130;5.028;2024-03-23T07:31:03;101032.53;;;17.80;56.15
30302;BME280;17111;52.130;5.028;2024-03-23T07:33:30;101037.75;;;17.81;55.76
30302;BME280;17111;52.130;5.028;2024-03-23T07:35:55;101030.56;;;17.82;56.04
30302;BME280;17111;52.130;5.028;2024-03-23T07:38:21;101034.06;;;17.82;56.15
30302;BME280;17111;52.130;5.028;2024-03-23T07:40:47;101037.59;;;17.83;55.61
30302;BME280;17111;52.130;5.028;2024-03-23T07:43:15;101035.75;;;17.83;55.69
30302;BME280;17111;52.130;5.028;2024-03-23T07:45:41;101029.56;;;17.83;55.76
30302;BME280;17111;52.130;5.028;2024-03-23T07:48:07;101026.88;;;17.83;55.54
30302;BME280;17111;52.130;5.028;2024-03-23T07:50:33;101025.19;;;17.82;55.37
30302;BME280;17111;52.130;5.028;2024-03-23T07:52:58;101026.03;;;17.82;55.61
30302;BME280;17111;52.130;5.028;2024-03-23T07:55:24;101018.00;;;17.82;55.37
30302;BME280;17111;52.130;5.028;2024-03-23T07:57:51;101019.00;;;17.81;55.63
30302;BME280;17111;52.130;5.028;2024-03-23T08:00:17;101030.69;;;17.80;55.61
30302;BME280;17111;52.130;5.028;2024-03-23T08:02:42;101028.72;;;17.82;55.80
30302;BME280;17111;52.130;5.028;2024-03-23T08:05:08;101028.72;;;17.82;55.74
30302;BME280;17111;52.130;5.028;2024-03-23T08:07:34;101028.56;;;17.84;55.70
30302;BME280;17111;52.130;5.028;2024-03-23T08:10:00;101025.59;;;17.87;55.62
30302;BME280;17111;52.130;5.028;2024-03-23T08:12:28;101033.19;;;17.91;55.17
30302;BME280;17111;52.130;5.028;2024-03-23T08:14:54;101023.84;;;17.95;54.59
30302;BME280;17111;52.130;5.028;2024-03-23T08:17:20;101026.06;;;18.00;54.47
30302;BME280;17111;52.130;5.028;2024-03-23T08:19:46;101022.09;;;18.04;54.09
30302;BME280;17111;52.130;5.028;2024-03-23T08:22:11;101018.97;;;18.09;53.23
30302;BME280;17111;52.130;5.028;2024-03-23T08:24:37;101026.59;;;18.13;53.35
30302;BME280;17111;52.130;5.028;2024-03-23T08:27:02;101025.13;;;18.19;53.04
30302;BME280;17111;52.130;5.028;2024-03-23T08:29:30;101025.81;;;18.21;52.51
30302;BME280;17111;52.130;5.028;2024-03-23T08:31:55;101027.34;;;18.23;52.52
30302;BME280;17111;52.130;5.028;2024-03-23T08:34:21;101032.44;;;18.27;52.65
30302;BME280;17111;52.130;5.028;2024-03-23T08:36:47;101031.13;;;18.31;52.46
30302;BME280;17111;52.130;5.028;2024-03-23T08:39:14;101032.53;;;18.35;52.29
30302;BME280;17111;52.130;5.028;2024-03-23T08:41:39;101026.69;;;18.39;52.21
30302;BME280;17111;52.130;5.028;2024-03-23T08:44:05;101021.88;;;18.43;52.06
30302;BME280;17111;52.130;5.028;2024-03-23T08:46:31;101018.91;;;18.46;51.67
30302;BME280;17111;52.130;5.028;2024-03-23T08:48:56;101019.56;;;18.48;51.63
30302;BME280;17111;52.130;5.028;2024-03-23T08:51:22;101031.00;;;18.50;51.39
30302;BME280;17111;52.130;5.028;2024-03-23T08:53:48;101028.31;;;18.50;51.34
30302;BME280;17111;52.130;5.028;2024-03-23T08:56:13;101028.16;;;18.52;51.37
30302;BME280;17111;52.130;5.028;2024-03-23T08:58:39;101023.81;;;18.50;51.66
30302;BME280;17111;52.130;5.028;2024-03-23T09:01:10;101031.84;;;18.50;51.95
30302;BME280;17111;52.130;5.028;2024-03-23T09:03:36;101022.13;;;18.49;51.87
30302;BME280;17111;52.130;5.028;2024-03-23T09:06:07;101019.44;;;18.49;51.83
30302;BME280;17111;52.130;5.028;2024-03-23T09:08:32;101011.91;;;18.53;52.11
30302;BME280;17111;52.130;5.028;2024-03-23T09:11:04;101011.59;;;18.56;52.16
30302;BME280;17111;52.130;5.028;2024-03-23T09:13:35;101016.66;;;18.59;52.06
30302;BME280;17111;52.130;5.028;2024-03-23T09:16:01;101027.94;;;18.63;52.39
30302;BME280;17111;52.130;5.028;2024-03-23T09:18:27;101028.50;;;18.66;52.43
30302;BME280;17111;52.130;5.028;2024-03-23T09:20:52;101022.13;;;18.67;52.37
30302;BME280;17111;52.130;5.028;2024-03-23T09:23:21;101025.50;;;18.69;52.59
30302;BME280;17111;52.130;5.028;2024-03-23T09:25:47;101012.78;;;18.71;52.68
30302;BME280;17111;52.130;5.028;2024-03-23T09:28:12;101031.28;;;18.74;52.38
30302;BME280;17111;52.130;5.028;2024-03-23T09:30:38;101024.44;;;18.80;53.11
30302;BME280;17111;52.130;5.028;2024-03-23T09:33:08;101023.00;;;18.86;52.10
30302;BME280;17111;52.130;5.028;2024-03-23T09:35:38;101015.84;;;18.94;52.41
30302;BME280;17111;52.130;5.028;2024-03-23T09:38:04;101012.38;;;19.02;52.36
30302;BME280;17111;52.130;5.028;2024-03-23T09:40:30;101015.50;;;19.15;51.82
30302;BME280;17111;52.130;5.028;2024-03-23T09:42:57;101007.00;;;19.28;51.65
30302;BME280;17111;52.130;5.028;2024-03-23T09:45:27;101007.75;;;19.38;52.03
30302;BME280;17111;52.130;5.028;2024-03-23T09:47:53;101009.50;;;19.47;51.22
30302;BME280;17111;52.130;5.028;2024-03-23T09:50:20;101002.63;;;19.53;51.44
30302;BME280;17111;52.130;5.028;2024-03-23T09:52:46;101013.06;;;19.56;51.24
30302;BME280;17111;52.130;5.028;2024-03-23T09:55:12;101011.91;;;19.59;50.85
30302;BME280;17111;52.130;5.028;2024-03-23T09:57:37;101018.13;;;19.59;51.07
30302;BME280;17111;52.130;5.028;2024-03-23T10:00:03;101010.63;;;19.63;50.68
30302;BME280;17111;52.130;5.028;2024-03-23T10:02:30;101009.13;;;19.68;50.27
30302;BME280;17111;52.130;5.028;2024-03-23T10:04:56;101026.31;;;19.76;50.01
30302;BME280;17111;52.130;5.028;2024-03-23T10:07:26;101015.91;;;19.81;50.13
30302;BME280;17111;52.130;5.028;2024-03-23T10:09:54;101012.06;;;19.83;50.18
30302;BME280;17111;52.130;5.028;2024-03-23T10:12:20;101011.22;;;19.83;49.80
30302;BME280;17111;52.130;5.028;2024-03-23T10:14:46;101013.09;;;19.82;49.68
30302;BME280;17111;52.130;5.028;2024-03-23T10:17:18;101006.38;;;19.86;50.35
30302;BME280;17111;52.130;5.028;2024-03-23T10:19:48;101010.56;;;19.89;50.16
30302;BME280;17111;52.130;5.028;2024-03-23T10:22:22;101004.03;;;19.91;49.52
30302;BME280;17111;52.130;5.028;2024-03-23T10:24:48;101003.84;;;19.93;49.55
30302;BME280;17111;52.130;5.028;2024-03-23T10:27:21;101015.63;;;19.92;49.50
30302;BME280;17111;52.130;5.028;2024-03-23T10:29:48;101023.88;;;19.90;49.62
30302;BME280;17111;52.130;5.028;2024-03-23T10:32:15;101021.50;;;19.87;49.10
30302;BME280;17111;52.130;5.028;2024-03-23T10:34:41;101021.31;;;19.89;49.34
30302;BME280;17111;52.130;5.028;2024-03-23T10:37:07;101016.31;;;19.94;49.36
30302;BME280;17111;52.130;5.028;2024-03-23T10:39:38;101010.09;;;20.02;48.94
30302;BME280;17111;52.130;5.028;2024-03-23T10:42:08;100998.53;;;20.09;49.24
30302;BME280;17111;52.130;5.028;2024-03-23T10:44:36;100999.56;;;20.16;49.49
30302;BME280;17111;52.130;5.028;2024-03-23T10:47:03;100993.69;;;20.21;49.43
30302;BME280;17111;52.130;5.028;2024-03-23T10:49:33;101003.13;;;20.25;48.72
30302;BME280;17111;52.130;5.028;2024-03-23T10:52:03;101000.94;;;20.29;48.80
30302;BME280;17111;52.130;5.028;2024-03-23T10:54:30;100997.25;;;20.30;48.38
30302;BME280;17111;52.130;5.028;2024-03-23T10:57:03;101008.19;;;20.28;48.72
30302;BME280;17111;52.130;5.028;2024-03-23T10:59:29;101005.66;;;20.27;48.79
30302;BME280;17111;52.130;5.028;2024-03-23T11:01:57;100994.06;;;20.26;48.31
30302;BME280;17111;52.130;5.028;2024-03-23T11:04:31;101012.53;;;20.29;47.27
30302;BME280;17111;52.130;5.028;2024-03-23T11:06:57;100996.59;;;20.36;47.57
30302;BME280;17111;52.130;5.028;2024-03-23T11:09:38;100987.00;;;20.41;47.49
30302;BME280;17111;52.130;5.028;2024-03-23T11:14:45;101006.91;;;20.49;48.17
30302;BME280;17111;52.130;5.028;2024-03-23T11:17:11;101004.22;;;20.49;47.60
30302;BME280;17111;52.130;5.028;2024-03-23T11:19:38;101000.97;;;20.45;45.74
30302;BME280;17111;52.130;5.028;2024-03-23T11:22:04;100997.59;;;20.35;45.01
30302;BME280;17111;52.130;5.028;2024-03-23T11:24:30;100991.38;;;20.26;45.15
30302;BME280;17111;52.130;5.028;2024-03-23T11:26:56;101002.78;;;20.20;44.95
30302;BME280;17111;52.130;5.028;2024-03-23T11:29:27;100995.53;;;20.12;44.84
30302;BME280;17111;52.130;5.028;2024-03-23T11:31:53;100987.41;;;20.04;45.17
30302;BME280;17111;52.130;5.028;2024-03-23T11:34:19;100995.81;;;20.01;45.42
30302;BME280;17111;52.130;5.028;2024-03-23T11:36:46;100999.69;;;19.99;45.64
30302;BME280;17111;52.130;5.028;2024-03-23T11:39:18;100984.34;;;19.91;45.25
30302;BME280;17111;52.130;5.028;2024-03-23T11:41:50;100988.69;;;19.84;46.70
30302;BME280;17111;52.130;5.028;2024-03-23T11:44:20;100991.69;;;19.81;46.55
30302;BME280;17111;52.130;5.028;2024-03-23T11:46:48;100974.06;;;19.78;46.49
30302;BME280;17111;52.130;5.028;2024-03-23T11:49:25;100997.56;;;19.76;45.77
30302;BME280;17111;52.130;5.028;2024-03-23T11:51:52;100983.94;;;19.78;47.00
30302;BME280;17111;52.130;5.028;2024-03-23T11:54:26;100992.03;;;19.78;48.49
30302;BME280;17111;52.130;5.028;2024-03-23T11:57:04;100976.06;;;19.76;49.47
30302;BME280;17111;52.130;5.028;2024-03-23T12:01:56;100965.47;;;19.75;51.95
30302;BME280;17111;52.130;5.028;2024-03-23T12:04:26;100986.28;;;19.72;54.40
30302;BME280;17111;52.130;5.028;2024-03-23T12:07:11;100964.75;;;19.64;55.27
30302;BME280;17111;52.130;5.028;2024-03-23T12:09:38;100979.88;;;19.65;54.92
30302;BME280;17111;52.130;5.028;2024-03-23T12:12:15;100968.13;;;19.66;55.36
30302;BME280;17111;52.130;5.028;2024-03-23T12:17:26;100960.09;;;19.75;54.07
30302;BME280;17111;52.130;5.028;2024-03-23T12:19:52;100962.59;;;19.76;53.65
30302;BME280;17111;52.130;5.028;2024-03-23T12:22:22;100944.47;;;19.78;53.11
30302;BME280;17111;52.130;5.028;2024-03-23T12:24:48;100956.06;;;19.79;52.96
30302;BME280;17111;52.130;5.028;2024-03-23T12:27:13;100953.38;;;19.79;52.41
30302;BME280;17111;52.130;5.028;2024-03-23T12:29:40;100946.66;;;19.75;52.10
30302;BME280;17111;52.130;5.028;2024-03-23T12:32:12;100950.97;;;19.67;51.97
30302;BME280;17111;52.130;5.028;2024-03-23T12:34:38;100947.13;;;19.70;52.10
30302;BME280;17111;52.130;5.028;2024-03-23T12:37:04;100941.94;;;19.77;52.06
30302;BME280;17111;52.130;5.028;2024-03-23T12:39:29;100933.22;;;19.83;52.71
30302;BME280;17111;52.130;5.028;2024-03-23T12:41:55;100937.09;;;19.88;51.83
30302;BME280;17111;52.130;5.028;2024-03-23T12:44:21;100940.31;;;19.92;51.31
30302;BME280;17111;52.130;5.028;2024-03-23T12:46:46;100945.38;;;19.95;51.67
30302;BME280;17111;52.130;5.028;2024-03-23T12:49:12;100939.31;;;20.01;50.89
30302;BME280;17111;52.130;5.028;2024-03-23T12:51:38;100937.00;;;20.06;51.49
30302;BME280;17111;52.130;5.028;2024-03-23T12:54:03;100949.94;;;20.11;51.46
30302;BME280;17111;52.130;5.028;2024-03-23T12:56:29;100946.25;;;20.12;51.04
30302;BME280;17111;52.130;5.028;2024-03-23T12:58:56;100965.91;;;20.12;50.39
30302;BME280;17111;52.130;5.028;2024-03-23T13:01:23;100964.91;;;20.13;49.80
30302;BME280;17111;52.130;5.028;2024-03-23T13:03:50;100962.91;;;20.15;49.64
30302;BME280;17111;52.130;5.028;2024-03-23T13:06:17;100961.06;;;20.16;50.26
30302;BME280;17111;52.130;5.028;2024-03-23T13:08:44;100948.44;;;20.16;49.74
30302;BME280;17111;52.130;5.028;2024-03-23T13:11:10;100949.44;;;20.15;49.62
30302;BME280;17111;52.130;5.028;2024-03-23T13:13:36;100937.66;;;20.16;49.80
30302;BME280;17111;52.130;5.028;2024-03-23T13:16:02;100942.22;;;20.16;50.05
30302;BME280;17111;52.130;5.028;2024-03-23T13:18:29;100941.06;;;20.18;49.94
30302;BME280;17111;52.130;5.028;2024-03-23T13:20:55;100926.59;;;20.19;49.97
30302;BME280;17111;52.130;5.028;2024-03-23T13:23:21;100931.13;;;20.19;49.75
30302;BME280;17111;52.130;5.028;2024-03-23T13:25:51;100940.03;;;20.19;49.25
30302;BME280;17111;52.130;5.028;2024-03-23T13:28:20;100934.66;;;20.19;48.82
30302;BME280;17111;52.130;5.028;2024-03-23T13:30:53;100926.91;;;20.25;49.23
30302;BME280;17111;52.130;5.028;2024-03-23T13:33:19;100925.91;;;20.26;48.87
30302;BME280;17111;52.130;5.028;2024-03-23T13:35:55;100932.31;;;20.25;48.95
30302;BME280;17111;52.130;5.028;2024-03-23T13:38:22;100920.69;;;20.24;49.44
30302;BME280;17111;52.130;5.028;2024-03-23T13:43:16;100922.56;;;20.24;49.49
30302;BME280;17111;52.130;5.028;2024-03-23T13:45:42;100910.09;;;20.23;49.18
30302;BME280;17111;52.130;5.028;2024-03-23T13:48:07;100906.72;;;20.20;49.70
30302;BME280;17111;52.130;5.028;2024-03-23T13:50:33;100917.31;;;20.22;49.62
30302;BME280;17111;52.130;5.028;2024-03-23T13:52:59;100901.34;;;20.20;49.66